createdAt,value
2019-05-10T00:00:00.921Z,981.07
2019-05-10T00:01:01.012Z,981.04
2019-05-10T00:02:01.106Z,981.10
2019-05-10T00:03:01.198Z,981.13
2019-05-10T00:04:01.285Z,981.12
2019-05-10T00:05:01.406Z,981.07
2019-05-10T00:06:01.480Z,981.05
2019-05-10T00:07:01.570Z,981.02
2019-05-10T00:08:01.662Z,981.05
2019-05-10T00:09:01.761Z,981.07
2019-05-10T00:10:01.848Z,981.07
2019-05-10T00:11:01.933Z,981.06
2019-05-10T00:12:02.540Z,981.16
2019-05-10T00:13:02.114Z,981.13
2019-05-10T00:14:02.207Z,981.11
2019-05-10T00:15:02.288Z,981.07
2019-05-10T00:16:02.380Z,981.05
2019-05-10T00:17:02.487Z,981.07
2019-05-10T00:18:02.560Z,981.06
2019-05-10T00:19:02.649Z,981.15
2019-05-10T00:20:02.742Z,981.14
2019-05-10T00:21:02.835Z,981.16
2019-05-10T00:22:02.923Z,981.16
2019-05-10T00:23:03.015Z,981.13
2019-05-10T00:24:03.106Z,981.16
2019-05-10T00:25:04.946Z,981.14
2019-05-10T00:26:03.295Z,981.15
2019-05-10T00:27:03.392Z,981.18
2019-05-10T00:28:03.544Z,981.18
2019-05-10T00:29:03.640Z,981.17
2019-05-10T00:30:03.670Z,981.16
2019-05-10T00:31:03.770Z,981.18
2019-05-10T00:32:03.849Z,981.17
2019-05-10T00:33:03.943Z,981.21
2019-05-10T00:34:04.030Z,981.27
2019-05-10T00:35:04.126Z,981.30
2019-05-10T00:36:04.220Z,981.31
2019-05-10T00:37:04.325Z,981.33
2019-05-10T00:38:04.410Z,981.36
2019-05-10T00:39:04.501Z,981.39
2019-05-10T00:40:04.613Z,981.39
2019-05-10T00:41:04.701Z,981.40
2019-05-10T00:42:04.795Z,981.40
2019-05-10T00:43:04.882Z,981.40
2019-05-10T00:44:04.973Z,981.40
2019-05-10T00:45:05.068Z,981.42
2019-05-10T00:46:05.164Z,981.46
2019-05-10T00:47:05.250Z,981.49
2019-05-10T00:48:05.339Z,981.47
2019-05-10T00:49:05.430Z,981.43
2019-05-10T00:50:05.523Z,981.50
2019-05-10T00:51:05.614Z,981.52
2019-05-10T00:52:05.717Z,981.50
2019-05-10T00:53:05.801Z,981.47
2019-05-10T00:54:05.887Z,981.44
2019-05-10T00:55:17.890Z,981.46
2019-05-10T00:56:06.070Z,981.48
2019-05-10T00:57:06.168Z,981.49
2019-05-10T00:58:06.255Z,981.43
2019-05-10T00:59:06.348Z,981.53
2019-05-10T01:00:06.439Z,981.51
2019-05-10T01:01:06.550Z,981.49
2019-05-10T01:02:06.657Z,981.50
2019-05-10T01:03:06.714Z,981.49
2019-05-10T01:04:06.806Z,981.54
2019-05-10T01:05:06.905Z,981.50
2019-05-10T01:06:06.987Z,981.51
2019-05-10T01:07:07.081Z,981.51
2019-05-10T01:08:07.173Z,981.53
2019-05-10T01:09:07.285Z,981.47
2019-05-10T01:10:07.357Z,981.48
2019-05-10T01:11:07.449Z,981.46
2019-05-10T01:12:07.548Z,981.47
2019-05-10T01:13:07.635Z,981.48
2019-05-10T01:14:07.729Z,981.53
2019-05-10T01:15:07.820Z,981.56
2019-05-10T01:16:07.912Z,981.52
2019-05-10T01:17:08.008Z,981.55
2019-05-10T01:18:08.097Z,981.57
2019-05-10T01:19:08.189Z,981.58
2019-05-10T01:20:08.284Z,981.58
2019-05-10T01:21:08.378Z,981.60
2019-05-10T01:22:08.465Z,981.56
2019-05-10T01:23:08.558Z,981.61
2019-05-10T01:24:08.650Z,981.57
2019-05-10T01:25:08.741Z,981.61
2019-05-10T01:26:08.833Z,981.60
2019-05-10T01:27:08.928Z,981.63
2019-05-10T01:28:09.015Z,981.64
2019-05-10T01:29:09.116Z,981.68
2019-05-10T01:30:09.204Z,981.69
2019-05-10T01:31:09.308Z,981.68
2019-05-10T01:32:09.401Z,981.74
2019-05-10T01:33:09.495Z,981.75
2019-05-10T01:34:09.661Z,981.75
2019-05-10T01:35:09.674Z,981.78
2019-05-10T01:36:09.765Z,981.76
2019-05-10T01:37:09.858Z,981.83
2019-05-10T01:38:09.946Z,981.78
2019-05-10T01:39:10.037Z,981.79
2019-05-10T01:40:10.131Z,981.76
2019-05-10T01:41:10.224Z,981.80
2019-05-10T01:42:10.312Z,981.76
2019-05-10T01:43:10.403Z,981.77
2019-05-10T01:44:10.497Z,981.83
2019-05-10T01:45:10.587Z,981.81
2019-05-10T01:46:10.683Z,981.83
2019-05-10T01:47:10.772Z,981.81
2019-05-10T01:48:10.865Z,981.78
2019-05-10T01:49:10.958Z,981.79
2019-05-10T01:50:11.051Z,981.80
2019-05-10T01:51:11.146Z,981.80
2019-05-10T01:52:11.228Z,981.80
2019-05-10T01:53:11.322Z,981.80
2019-05-10T01:54:11.409Z,981.81
2019-05-10T01:55:11.505Z,981.85
2019-05-10T01:56:11.600Z,981.83
2019-05-10T01:57:11.687Z,981.85
2019-05-10T01:58:11.775Z,981.89
2019-05-10T01:59:11.867Z,981.87
2019-05-10T02:00:11.959Z,981.92
2019-05-10T02:01:12.052Z,981.92
2019-05-10T02:02:12.145Z,981.93
2019-05-10T02:03:12.230Z,981.95
2019-05-10T02:04:12.324Z,981.99
2019-05-10T02:05:12.416Z,981.93
2019-05-10T02:06:12.506Z,981.96
2019-05-10T02:07:12.600Z,981.93
2019-05-10T02:08:12.695Z,981.90
2019-05-10T02:09:12.781Z,981.93
2019-05-10T02:10:12.876Z,981.88
2019-05-10T02:11:12.967Z,981.96
2019-05-10T02:12:13.062Z,981.93
2019-05-10T02:13:13.151Z,981.98
2019-05-10T02:14:13.243Z,982.02
2019-05-10T02:15:13.329Z,982.05
2019-05-10T02:16:13.424Z,982.07
2019-05-10T02:17:13.518Z,982.09
2019-05-10T02:18:13.610Z,982.06
2019-05-10T02:19:13.701Z,982.11
2019-05-10T02:20:13.792Z,982.07
2019-05-10T02:21:13.882Z,982.05
2019-05-10T02:22:13.977Z,982.08
2019-05-10T02:23:14.067Z,982.09
2019-05-10T02:24:14.160Z,982.10
2019-05-10T02:25:14.332Z,982.16
2019-05-10T02:26:14.344Z,982.15
2019-05-10T02:27:14.437Z,982.19
2019-05-10T02:28:14.526Z,982.22
2019-05-10T02:29:14.623Z,982.24
2019-05-10T02:30:14.720Z,982.22
2019-05-10T02:31:14.813Z,982.30
2019-05-10T02:32:14.896Z,982.32
2019-05-10T02:33:14.986Z,982.36
2019-05-10T02:34:15.074Z,982.30
2019-05-10T02:35:15.166Z,982.30
2019-05-10T02:36:15.256Z,982.35
2019-05-10T02:37:15.354Z,982.37
2019-05-10T02:38:15.439Z,982.37
2019-05-10T02:39:15.530Z,982.36
2019-05-10T02:40:15.614Z,982.41
2019-05-10T02:41:15.717Z,982.42
2019-05-10T02:42:15.814Z,982.41
2019-05-10T02:43:15.888Z,982.41
2019-05-10T02:44:15.983Z,982.43
2019-05-10T02:45:16.072Z,982.43
2019-05-10T02:46:16.164Z,982.46
2019-05-10T02:47:16.264Z,982.47
2019-05-10T02:48:23.518Z,982.44
2019-05-10T02:49:16.477Z,982.43
2019-05-10T02:50:16.568Z,982.41
2019-05-10T02:51:16.658Z,982.40
2019-05-10T02:52:16.753Z,982.42
2019-05-10T02:53:16.845Z,982.40
2019-05-10T02:54:16.937Z,982.41
2019-05-10T02:55:17.032Z,982.46
2019-05-10T02:56:29.666Z,982.46
2019-05-10T02:57:17.209Z,982.43
2019-05-10T02:58:17.309Z,982.44
2019-05-10T02:59:17.400Z,982.50
2019-05-10T03:00:17.486Z,982.53
2019-05-10T03:01:17.575Z,982.55
2019-05-10T03:02:17.673Z,982.52
2019-05-10T03:03:17.773Z,982.55
2019-05-10T03:04:17.848Z,982.58
2019-05-10T03:05:17.942Z,982.60
2019-05-10T03:06:18.033Z,982.56
2019-05-10T03:07:18.129Z,982.59
2019-05-10T03:08:18.211Z,982.56
2019-05-10T03:09:18.300Z,982.59
2019-05-10T03:10:18.396Z,982.60
2019-05-10T03:11:18.487Z,982.55
2019-05-10T03:12:18.575Z,982.61
2019-05-10T03:13:18.668Z,982.60
2019-05-10T03:14:18.760Z,982.56
2019-05-10T03:15:18.852Z,982.62
2019-05-10T03:16:18.947Z,982.62
2019-05-10T03:17:19.037Z,982.61
2019-05-10T03:18:19.130Z,982.70
2019-05-10T03:19:19.225Z,982.66
2019-05-10T03:20:19.308Z,982.67
2019-05-10T03:21:19.400Z,982.63
2019-05-10T03:22:19.493Z,982.58
2019-05-10T03:23:19.583Z,982.64
2019-05-10T03:24:19.673Z,982.63
2019-05-10T03:25:19.765Z,982.64
2019-05-10T03:26:19.851Z,982.64
2019-05-10T03:27:19.942Z,982.68
2019-05-10T03:28:20.033Z,982.68
2019-05-10T03:29:20.123Z,982.72
2019-05-10T03:30:20.220Z,982.73
2019-05-10T03:31:20.309Z,982.73
2019-05-10T03:32:20.410Z,982.74
2019-05-10T03:33:20.498Z,982.79
2019-05-10T03:34:20.589Z,982.81
2019-05-10T03:35:20.680Z,982.77
2019-05-10T03:36:20.771Z,982.80
2019-05-10T03:37:20.863Z,982.79
2019-05-10T03:38:20.958Z,982.80
2019-05-10T03:39:21.051Z,982.83
2019-05-10T03:40:21.145Z,982.80
2019-05-10T03:41:21.240Z,982.86
2019-05-10T03:42:21.336Z,982.86
2019-05-10T03:43:21.428Z,982.94
2019-05-10T03:44:21.514Z,982.97
2019-05-10T03:45:21.613Z,982.93
2019-05-10T03:46:21.700Z,982.96
2019-05-10T03:47:21.796Z,983.03
2019-05-10T03:48:21.884Z,983.02
2019-05-10T03:49:21.984Z,982.99
2019-05-10T03:50:22.067Z,983.05
2019-05-10T03:51:22.176Z,983.08
2019-05-10T03:52:22.271Z,983.08
2019-05-10T03:53:22.381Z,983.06
2019-05-10T03:54:22.454Z,983.04
2019-05-10T03:55:22.550Z,982.99
2019-05-10T03:56:22.636Z,983.02
2019-05-10T03:57:22.733Z,983.02
2019-05-10T03:58:22.896Z,982.99
2019-05-10T03:59:22.920Z,983.04
2019-05-10T04:00:23.014Z,983.05
2019-05-10T04:01:23.114Z,983.04
2019-05-10T04:02:23.205Z,983.08
2019-05-10T04:03:23.299Z,983.06
2019-05-10T04:04:23.400Z,983.12
2019-05-10T04:05:23.493Z,983.10
2019-05-10T04:06:23.586Z,983.14
2019-05-10T04:07:23.679Z,983.15
2019-05-10T04:08:23.770Z,983.13
2019-05-10T04:09:23.867Z,983.11
2019-05-10T04:10:23.951Z,983.12
2019-05-10T04:11:24.039Z,983.15
2019-05-10T04:12:24.138Z,983.18
2019-05-10T04:13:24.220Z,983.15
2019-05-10T04:14:24.325Z,983.21
2019-05-10T04:15:24.405Z,983.20
2019-05-10T04:16:24.506Z,983.22
2019-05-10T04:17:24.587Z,983.26
2019-05-10T04:18:24.681Z,983.26
2019-05-10T04:19:24.772Z,983.28
2019-05-10T04:20:24.862Z,983.30
2019-05-10T04:21:24.954Z,983.27
2019-05-10T04:22:25.057Z,983.32
2019-05-10T04:23:25.146Z,983.31
2019-05-10T04:24:25.238Z,983.29
2019-05-10T04:25:25.333Z,983.34
2019-05-10T04:26:25.423Z,983.35
2019-05-10T04:27:32.000Z,983.38
2019-05-10T04:28:25.602Z,983.38
2019-05-10T04:29:25.700Z,983.35
2019-05-10T04:30:25.871Z,983.41
2019-05-10T04:31:25.881Z,983.35
2019-05-10T04:32:25.970Z,983.37
2019-05-10T04:33:26.062Z,983.41
2019-05-10T04:34:26.153Z,983.36
2019-05-10T04:35:26.248Z,983.41
2019-05-10T04:36:26.369Z,983.42
2019-05-10T04:37:26.471Z,983.41
2019-05-10T04:38:26.543Z,983.43
2019-05-10T04:39:27.679Z,983.43
2019-05-10T04:40:26.697Z,983.45
2019-05-10T04:41:26.800Z,983.47
2019-05-10T04:42:26.891Z,983.47
2019-05-10T04:43:26.980Z,983.46
2019-05-10T04:44:27.088Z,983.47
2019-05-10T04:45:27.165Z,983.47
2019-05-10T04:46:27.260Z,983.45
2019-05-10T04:47:27.360Z,983.45
2019-05-10T04:48:27.449Z,983.49
2019-05-10T04:49:27.537Z,983.51
2019-05-10T04:50:27.630Z,983.49
2019-05-10T04:51:27.726Z,983.50
2019-05-10T04:52:27.816Z,983.52
2019-05-10T04:53:27.912Z,983.45
2019-05-10T04:54:28.017Z,983.49
2019-05-10T04:55:28.096Z,983.50
2019-05-10T04:56:28.195Z,983.53
2019-05-10T04:57:28.284Z,983.52
2019-05-10T04:58:28.375Z,983.51
2019-05-10T04:59:28.470Z,983.54
2019-05-10T05:00:28.561Z,983.50
2019-05-10T05:01:28.654Z,983.49
2019-05-10T05:02:28.748Z,983.54
2019-05-10T05:03:28.827Z,983.59
2019-05-10T05:04:28.921Z,983.64
2019-05-10T05:05:29.027Z,983.66
2019-05-10T05:06:29.111Z,983.60
2019-05-10T05:07:29.204Z,983.60
2019-05-10T05:08:29.295Z,983.64
2019-05-10T05:09:29.389Z,983.67
2019-05-10T05:10:29.476Z,983.63
2019-05-10T05:11:29.571Z,983.61
2019-05-10T05:12:29.663Z,983.54
2019-05-10T05:13:29.777Z,983.58
2019-05-10T05:14:29.841Z,983.58
2019-05-10T05:15:29.933Z,983.59
2019-05-10T05:16:30.027Z,983.60
2019-05-10T05:17:30.123Z,983.66
2019-05-10T05:18:30.218Z,983.66
2019-05-10T05:19:30.306Z,983.65
2019-05-10T05:20:30.402Z,983.67
2019-05-10T05:21:30.484Z,983.73
2019-05-10T05:22:30.587Z,983.72
2019-05-10T05:23:30.684Z,983.79
2019-05-10T05:24:30.773Z,983.83
2019-05-10T05:25:35.302Z,983.75
2019-05-10T05:26:30.960Z,983.74
2019-05-10T05:27:31.064Z,983.79
2019-05-10T05:28:31.153Z,983.82
2019-05-10T05:29:31.240Z,983.84
2019-05-10T05:30:31.339Z,983.86
2019-05-10T05:31:31.436Z,983.86
2019-05-10T05:32:31.540Z,983.86
2019-05-10T05:33:31.619Z,983.90
2019-05-10T05:34:31.721Z,983.93
2019-05-10T05:35:31.808Z,983.91
2019-05-10T05:36:31.911Z,983.92
2019-05-10T05:37:32.000Z,983.91
2019-05-10T05:38:32.095Z,983.96
2019-05-10T05:39:32.186Z,983.91
2019-05-10T05:40:32.280Z,983.98
2019-05-10T05:41:32.378Z,984.03
2019-05-10T05:42:32.468Z,983.97
2019-05-10T05:43:32.565Z,983.98
2019-05-10T05:44:32.675Z,983.99
2019-05-10T05:45:33.845Z,983.93
2019-05-10T05:46:32.866Z,984.00
2019-05-10T05:47:37.593Z,984.05
2019-05-10T05:48:40.284Z,984.08
2019-05-10T05:49:33.121Z,984.04
2019-05-10T05:50:33.219Z,984.02
2019-05-10T05:51:33.366Z,984.07
2019-05-10T05:52:33.404Z,984.00
2019-05-10T05:53:35.953Z,984.08
2019-05-10T05:54:33.593Z,984.04
2019-05-10T05:55:33.691Z,984.02
2019-05-10T05:56:33.782Z,984.00
2019-05-10T05:57:33.875Z,984.05
2019-05-10T05:58:38.149Z,983.98
2019-05-10T05:59:34.065Z,984.03
2019-05-10T06:00:37.668Z,984.02
2019-05-10T06:01:34.274Z,984.00
2019-05-10T06:02:34.348Z,984.03
2019-05-10T06:03:34.439Z,983.99
2019-05-10T06:04:34.532Z,984.08
2019-05-10T06:05:37.131Z,984.06
2019-05-10T06:06:34.725Z,984.10
2019-05-10T06:07:37.953Z,984.03
2019-05-10T06:08:34.914Z,984.07
2019-05-10T06:09:37.826Z,984.05
2019-05-10T06:10:35.101Z,984.06
2019-05-10T06:11:36.027Z,984.06
2019-05-10T06:12:35.290Z,984.05
2019-05-10T06:13:35.380Z,984.05
2019-05-10T06:14:35.470Z,984.10
2019-05-10T06:15:35.562Z,983.99
2019-05-10T06:16:35.659Z,984.01
2019-05-10T06:17:35.756Z,984.04
2019-05-10T06:18:35.852Z,984.07
2019-05-10T06:19:35.954Z,984.04
2019-05-10T06:20:38.121Z,984.09
2019-05-10T06:21:36.142Z,984.20
2019-05-10T06:22:38.281Z,984.31
2019-05-10T06:23:36.915Z,984.15
2019-05-10T06:24:36.426Z,984.18
2019-05-10T06:25:40.469Z,984.17
2019-05-10T06:26:36.616Z,984.28
2019-05-10T06:27:41.116Z,984.22
2019-05-10T06:28:57.501Z,984.26
2019-05-10T06:29:36.895Z,984.31
2019-05-10T06:30:36.988Z,984.27
2019-05-10T06:31:37.085Z,984.25
2019-05-10T06:32:37.177Z,984.25
2019-05-10T06:33:39.656Z,984.28
2019-05-10T06:34:38.870Z,984.27
2019-05-10T06:35:37.456Z,984.32
2019-05-10T06:36:37.551Z,984.32
2019-05-10T06:37:37.650Z,984.39
2019-05-10T06:38:37.745Z,984.36
2019-05-10T06:39:37.836Z,984.40
2019-05-10T06:40:46.522Z,984.37
2019-05-10T06:41:38.047Z,984.33
2019-05-10T06:42:38.218Z,984.32
2019-05-10T06:43:38.227Z,984.31
2019-05-10T06:44:38.318Z,984.31
2019-05-10T06:45:38.423Z,984.30
2019-05-10T06:46:38.514Z,984.41
2019-05-10T06:47:41.964Z,984.45
2019-05-10T06:48:38.702Z,984.47
2019-05-10T06:49:41.684Z,984.45
2019-05-10T06:50:38.889Z,984.50
2019-05-10T06:51:42.797Z,984.50
2019-05-10T06:52:39.088Z,984.43
2019-05-10T06:53:42.265Z,984.41
2019-05-10T06:54:39.278Z,984.45
2019-05-10T06:55:39.374Z,984.36
2019-05-10T06:56:39.473Z,984.46
2019-05-10T06:57:39.567Z,984.45
2019-05-10T06:58:39.656Z,984.50
2019-05-10T06:59:39.743Z,984.50
2019-05-10T07:00:44.837Z,984.49
2019-05-10T07:01:45.217Z,984.55
2019-05-10T07:02:40.036Z,984.48
2019-05-10T07:03:40.127Z,984.50
2019-05-10T07:04:41.234Z,984.51
2019-05-10T07:05:40.316Z,984.51
2019-05-10T07:06:40.409Z,984.53
2019-05-10T07:07:45.441Z,984.52
2019-05-10T07:08:44.157Z,984.55
2019-05-10T07:10:01.682Z,984.54
2019-05-10T07:10:40.792Z,984.51
2019-05-10T07:11:40.888Z,984.48
2019-05-10T07:12:41.034Z,984.50
2019-05-10T07:13:47.105Z,984.51
2019-05-10T07:14:45.876Z,984.58
2019-05-10T07:15:44.600Z,984.52
2019-05-10T07:16:41.358Z,984.52
2019-05-10T07:17:45.156Z,984.53
2019-05-10T07:18:41.580Z,984.54
2019-05-10T07:19:53.203Z,984.59
2019-05-10T07:20:43.289Z,984.58
2019-05-10T07:21:44.783Z,984.54
2019-05-10T07:22:41.954Z,984.55
2019-05-10T07:23:44.703Z,984.56
2019-05-10T07:24:42.151Z,984.59
2019-05-10T07:25:44.022Z,984.61
2019-05-10T07:26:42.337Z,984.62
2019-05-10T07:27:42.432Z,984.60
2019-05-10T07:28:42.530Z,984.65
2019-05-10T07:29:45.957Z,984.62
2019-05-10T07:30:42.713Z,984.62
2019-05-10T07:31:42.802Z,984.65
2019-05-10T07:32:42.898Z,984.67
2019-05-10T07:33:42.993Z,984.61
2019-05-10T07:34:48.773Z,984.61
2019-05-10T07:35:43.179Z,984.68
2019-05-10T07:36:43.276Z,984.63
2019-05-10T07:37:47.753Z,984.67
2019-05-10T07:38:43.458Z,984.67
2019-05-10T07:39:43.557Z,984.72
2019-05-10T07:40:43.660Z,984.67
2019-05-10T07:41:43.749Z,984.69
2019-05-10T07:42:45.543Z,984.69
2019-05-10T07:43:47.714Z,984.72
2019-05-10T07:44:46.737Z,984.79
2019-05-10T07:45:44.141Z,984.82
2019-05-10T07:46:47.038Z,984.75
2019-05-10T07:47:44.314Z,984.78
2019-05-10T07:48:47.279Z,984.81
2019-05-10T07:49:44.499Z,984.85
2019-05-10T07:50:49.761Z,984.86
2019-05-10T07:51:44.684Z,984.82
2019-05-10T07:52:45.779Z,984.84
2019-05-10T07:53:44.882Z,984.83
2019-05-10T07:54:47.616Z,984.91
2019-05-10T07:55:45.074Z,984.89
2019-05-10T07:56:46.130Z,984.81
2019-05-10T07:57:45.261Z,984.89
2019-05-10T07:58:45.358Z,984.92
2019-05-10T07:59:50.629Z,984.91
2019-05-10T08:00:46.768Z,984.96
2019-05-10T08:01:48.998Z,984.98
2019-05-10T08:02:55.043Z,984.93
2019-05-10T08:03:51.822Z,984.92
2019-05-10T08:04:45.921Z,985.01
2019-05-10T08:05:51.036Z,985.05
2019-05-10T08:06:48.757Z,985.09
2019-05-10T08:07:46.202Z,985.10
2019-05-10T08:08:46.300Z,985.06
2019-05-10T08:09:48.621Z,985.10
2019-05-10T08:10:48.695Z,985.14
2019-05-10T08:11:48.462Z,985.11
2019-05-10T08:12:48.404Z,985.16
2019-05-10T08:13:48.592Z,985.23
2019-05-10T08:14:51.873Z,985.23
2019-05-10T08:15:48.998Z,985.17
2019-05-10T08:16:51.883Z,985.19
2019-05-10T08:17:50.488Z,985.22
2019-05-10T08:18:49.305Z,985.20
2019-05-10T08:19:47.330Z,985.16
2019-05-10T08:20:53.618Z,985.17
2019-05-10T08:21:48.932Z,985.19
2019-05-10T08:22:47.612Z,985.22
2019-05-10T08:23:47.709Z,985.16
2019-05-10T08:24:52.884Z,985.15
2019-05-10T08:25:47.895Z,985.14
2019-05-10T08:26:47.990Z,985.19
2019-05-10T08:27:50.760Z,985.19
2019-05-10T08:28:48.176Z,985.20
2019-05-10T08:29:52.971Z,985.22
2019-05-10T08:30:58.122Z,985.23
2019-05-10T08:31:52.841Z,985.19
2019-05-10T08:32:48.561Z,985.29
2019-05-10T08:33:53.674Z,985.29
2019-05-10T08:34:53.048Z,985.26
2019-05-10T08:35:54.897Z,985.32
2019-05-10T08:36:48.938Z,985.39
2019-05-10T08:37:49.032Z,985.38
2019-05-10T08:39:03.132Z,985.39
2019-05-10T08:39:55.323Z,985.36
2019-05-10T08:40:49.314Z,985.37
2019-05-10T08:42:03.638Z,985.39
2019-05-10T08:43:02.910Z,985.43
2019-05-10T08:43:49.598Z,985.45
2019-05-10T08:44:54.141Z,985.46
2019-05-10T08:45:52.344Z,985.42
2019-05-10T08:46:52.343Z,985.44
2019-05-10T08:47:52.650Z,985.49
2019-05-10T08:48:51.363Z,985.46
2019-05-10T08:50:00.001Z,985.47
2019-05-10T08:50:56.788Z,985.51
2019-05-10T08:51:52.235Z,985.45
2019-05-10T08:52:56.313Z,985.48
2019-05-10T08:53:55.920Z,985.55
2019-05-10T08:54:54.969Z,985.56
2019-05-10T08:55:52.477Z,985.60
2019-05-10T08:56:54.947Z,985.61
2019-05-10T08:57:52.482Z,985.63
2019-05-10T08:58:53.344Z,985.65
2019-05-10T08:59:54.093Z,985.59
2019-05-10T09:01:09.571Z,985.61
2019-05-10T09:01:53.670Z,985.62
2019-05-10T09:02:52.035Z,985.65
2019-05-10T09:03:55.030Z,985.63
2019-05-10T09:04:52.911Z,985.64
2019-05-10T09:05:52.520Z,985.68
2019-05-10T09:06:55.587Z,985.65
2019-05-10T09:08:02.389Z,985.71
2019-05-10T09:09:01.121Z,985.75
2019-05-10T09:09:53.036Z,985.73
2019-05-10T09:10:52.959Z,985.76
2019-05-10T09:11:52.381Z,985.76
2019-05-10T09:12:57.858Z,985.83
2019-05-10T09:13:53.393Z,985.82
2019-05-10T09:14:57.375Z,985.80
2019-05-10T09:15:56.809Z,985.84
2019-05-10T09:17:00.702Z,985.92
2019-05-10T09:17:52.888Z,985.91
2019-05-10T09:18:53.647Z,985.87
2019-05-10T09:19:53.052Z,985.87
2019-05-10T09:20:54.558Z,985.89
2019-05-10T09:21:54.992Z,985.91
2019-05-10T09:22:53.327Z,985.97
2019-05-10T09:24:01.657Z,985.97
2019-05-10T09:24:53.515Z,986.00
2019-05-10T09:25:53.595Z,986.03
2019-05-10T09:26:56.941Z,986.07
2019-05-10T09:27:53.787Z,986.03
2019-05-10T09:28:57.557Z,986.11
2019-05-10T09:29:53.970Z,986.10
2019-05-10T09:31:00.637Z,986.08
2019-05-10T09:31:54.160Z,986.09
2019-05-10T09:32:54.254Z,986.17
2019-05-10T09:33:54.509Z,986.15
2019-05-10T09:34:54.494Z,986.11
2019-05-10T09:35:55.007Z,986.15
2019-05-10T09:36:54.619Z,986.17
2019-05-10T09:37:58.532Z,986.17
2019-05-10T09:38:54.819Z,986.19
2019-05-10T09:40:04.028Z,986.20
2019-05-10T09:40:56.316Z,986.20
2019-05-10T09:41:55.108Z,986.19
2019-05-10T09:42:59.407Z,986.11
2019-05-10T09:43:55.282Z,986.21
2019-05-10T09:44:55.372Z,986.23
2019-05-10T09:45:55.467Z,986.18
2019-05-10T09:46:55.561Z,986.22
2019-05-10T09:47:55.658Z,986.24
2019-05-10T09:49:06.161Z,986.23
2019-05-10T09:49:58.855Z,986.21
2019-05-10T09:51:00.213Z,986.23
2019-05-10T09:51:56.041Z,986.25
2019-05-10T09:52:56.117Z,986.26
2019-05-10T09:53:57.604Z,986.27
2019-05-10T09:54:56.979Z,986.30
2019-05-10T09:56:02.624Z,986.35
2019-05-10T09:56:57.501Z,986.27
2019-05-10T09:57:58.376Z,986.28
2019-05-10T09:58:58.239Z,986.32
2019-05-10T09:59:57.291Z,986.33
2019-05-10T10:01:12.743Z,986.35
2019-05-10T10:01:57.217Z,986.41
2019-05-10T10:03:01.588Z,986.42
2019-05-10T10:03:58.348Z,986.42
2019-05-10T10:04:58.879Z,986.41
2019-05-10T10:06:05.191Z,986.42
2019-05-10T10:06:58.073Z,986.38
2019-05-10T10:07:57.877Z,986.41
2019-05-10T10:08:57.734Z,986.43
2019-05-10T10:09:57.727Z,986.39
2019-05-10T10:11:01.148Z,986.47
2019-05-10T10:12:02.827Z,986.43
2019-05-10T10:13:07.649Z,986.50
2019-05-10T10:14:00.011Z,986.45
2019-05-10T10:14:58.193Z,986.48
2019-05-10T10:15:58.294Z,986.50
2019-05-10T10:17:02.761Z,986.48
2019-05-10T10:17:58.478Z,986.47
2019-05-10T10:18:58.571Z,986.47
2019-05-10T10:19:58.669Z,986.52
2019-05-10T10:20:58.760Z,986.52
2019-05-10T10:21:58.852Z,986.52
2019-05-10T10:22:58.950Z,986.50
2019-05-10T10:24:00.429Z,986.49
2019-05-10T10:25:00.582Z,986.53
2019-05-10T10:25:59.234Z,986.52
2019-05-10T10:26:59.330Z,986.56
2019-05-10T10:27:59.423Z,986.58
2019-05-10T10:29:00.079Z,986.59
2019-05-10T10:29:59.621Z,986.61
2019-05-10T10:31:05.321Z,986.59
2019-05-10T10:31:59.801Z,986.57
2019-05-10T10:32:59.893Z,986.61
2019-05-10T10:34:02.863Z,986.58
2019-05-10T10:35:00.085Z,986.55
2019-05-10T10:36:04.833Z,986.56
2019-05-10T10:37:00.268Z,986.54
2019-05-10T10:38:03.093Z,986.55
2019-05-10T10:39:00.454Z,986.58
2019-05-10T10:40:05.162Z,986.57
2019-05-10T10:41:00.653Z,986.61
2019-05-10T10:42:02.497Z,986.56
2019-05-10T10:43:00.835Z,986.57
2019-05-10T10:44:00.929Z,986.53
2019-05-10T10:45:01.022Z,986.59
2019-05-10T10:46:01.116Z,986.59
2019-05-10T10:47:01.212Z,986.60
2019-05-10T10:48:02.529Z,986.64
2019-05-10T10:49:01.410Z,986.64
2019-05-10T10:50:02.947Z,986.61
2019-05-10T10:51:01.589Z,986.59
2019-05-10T10:52:05.622Z,986.54
2019-05-10T10:53:01.795Z,986.54
2019-05-10T10:54:01.943Z,986.61
2019-05-10T10:55:05.572Z,986.57
2019-05-10T10:56:03.779Z,986.57
2019-05-10T10:57:02.166Z,986.63
2019-05-10T10:58:02.249Z,986.62
2019-05-10T10:59:02.348Z,986.66
2019-05-10T11:00:02.441Z,986.64
2019-05-10T11:01:10.616Z,986.72
2019-05-10T11:02:29.046Z,986.64
2019-05-10T11:03:02.734Z,986.67
2019-05-10T11:04:08.166Z,986.72
2019-05-10T11:05:02.923Z,986.65
2019-05-10T11:06:03.016Z,986.66
2019-05-10T11:07:10.389Z,986.64
2019-05-10T11:08:03.212Z,986.63
2019-05-10T11:09:03.303Z,986.66
2019-05-10T11:10:14.679Z,986.65
2019-05-10T11:11:03.484Z,986.66
2019-05-10T11:12:03.582Z,986.68
2019-05-10T11:13:11.938Z,986.61
2019-05-10T11:14:07.347Z,986.62
2019-05-10T11:15:03.869Z,986.62
2019-05-10T11:16:09.615Z,986.69
2019-05-10T11:17:04.082Z,986.70
2019-05-10T11:18:04.174Z,986.67
2019-05-10T11:19:11.510Z,986.64
2019-05-10T11:20:04.365Z,986.62
2019-05-10T11:21:04.460Z,986.66
2019-05-10T11:22:09.528Z,986.68
2019-05-10T11:23:04.651Z,986.66
2019-05-10T11:24:10.200Z,986.70
2019-05-10T11:25:09.412Z,986.65
2019-05-10T11:26:04.929Z,986.59
2019-05-10T11:27:07.217Z,986.63
2019-05-10T11:28:05.139Z,986.62
2019-05-10T11:29:05.219Z,986.73
2019-05-10T11:30:05.318Z,986.67
2019-05-10T11:31:05.408Z,986.71
2019-05-10T11:32:16.813Z,986.64
2019-05-10T11:33:05.607Z,986.63
2019-05-10T11:34:06.316Z,986.59
2019-05-10T11:35:05.820Z,986.63
2019-05-10T11:36:08.567Z,986.67
2019-05-10T11:37:05.996Z,986.70
2019-05-10T11:38:06.683Z,986.69
2019-05-10T11:39:06.253Z,986.73
2019-05-10T11:40:06.290Z,986.75
2019-05-10T11:41:07.228Z,986.82
2019-05-10T11:42:07.307Z,986.76
2019-05-10T11:43:06.565Z,986.78
2019-05-10T11:44:08.951Z,986.84
2019-05-10T11:45:06.753Z,986.77
2019-05-10T11:46:06.852Z,986.80
2019-05-10T11:47:20.983Z,986.84
2019-05-10T11:48:07.058Z,986.92
2019-05-10T11:49:07.152Z,986.82
2019-05-10T11:50:07.249Z,986.85
2019-05-10T11:51:12.272Z,986.89
2019-05-10T11:52:09.967Z,986.95
2019-05-10T11:53:13.581Z,986.89
2019-05-10T11:54:07.638Z,986.84
2019-05-10T11:55:07.734Z,986.86
2019-05-10T11:56:13.662Z,986.83
2019-05-10T11:57:10.925Z,986.88
2019-05-10T11:59:15.909Z,986.87
2019-05-10T12:00:14.242Z,986.83
2019-05-10T12:01:14.747Z,986.80
2019-05-10T12:03:14.829Z,986.86
2019-05-10T12:04:15.277Z,986.79
2019-05-10T12:05:12.263Z,986.80
2019-05-10T12:06:09.674Z,986.79
2019-05-10T12:07:12.653Z,986.76
2019-05-10T12:08:12.673Z,986.80
2019-05-10T12:09:12.330Z,986.85
2019-05-10T12:10:19.372Z,986.78
2019-05-10T12:11:27.246Z,986.84
2019-05-10T12:12:12.270Z,986.70
2019-05-10T12:13:19.138Z,986.68
2019-05-10T12:14:13.557Z,986.73
2019-05-10T12:15:13.512Z,986.72
2019-05-10T12:16:16.143Z,986.76
2019-05-10T12:17:13.826Z,986.72
2019-05-10T12:18:14.840Z,986.73
2019-05-10T12:19:17.071Z,986.71
2019-05-10T12:20:16.361Z,986.59
2019-05-10T12:21:11.287Z,986.63
2019-05-10T12:22:15.485Z,986.68
2019-05-10T12:23:13.394Z,986.61
2019-05-10T12:24:31.261Z,986.65
2019-05-10T12:25:32.682Z,986.64
2019-05-10T12:25:59.518Z,986.98
2019-05-10T12:25:59.688Z,986.82
2019-05-10T12:27:22.522Z,986.65
2019-05-10T12:28:15.449Z,986.58
2019-05-10T12:29:13.417Z,986.60
2019-05-10T12:30:11.613Z,986.55